createdAt,value
2018-09-06T00:00:00.390Z,18.3
2018-09-06T00:05:00.470Z,19.6
2018-09-06T00:10:00.391Z,20.4
2018-09-06T00:15:00.386Z,20.9
2018-09-06T00:20:00.392Z,22.3
2018-09-06T00:25:00.425Z,23.3
2018-09-06T00:30:00.394Z,23.8
2018-09-06T00:35:00.405Z,25.0
2018-09-06T00:40:00.409Z,25.6
2018-09-06T00:45:00.397Z,25.9
2018-09-06T00:50:00.399Z,26.4
2018-09-06T00:55:00.409Z,25.8
2018-09-06T01:00:00.404Z,25.4
2018-09-06T01:05:00.437Z,24.8
2018-09-06T01:10:00.412Z,24.7
2018-09-06T01:15:00.407Z,23.9
2018-09-06T01:20:00.426Z,23.8
2018-09-06T01:25:00.379Z,23.9
2018-09-06T01:30:00.436Z,23.0
2018-09-06T01:35:00.418Z,21.7
2018-09-06T01:40:00.486Z,21.2
2018-09-06T01:45:00.431Z,19.9
2018-09-06T01:50:00.422Z,19.7
2018-09-06T01:55:00.417Z,20.7
2018-09-06T02:00:00.415Z,21.7
2018-09-06T02:05:00.389Z,22.9
2018-09-06T02:10:00.379Z,25.0
2018-09-06T02:15:00.349Z,25.4
2018-09-06T02:20:00.384Z,25.6
2018-09-06T02:25:00.355Z,25.5
2018-09-06T02:30:00.409Z,25.5
2018-09-06T02:35:00.381Z,25.8
2018-09-06T02:45:00.413Z,26.4
2018-09-06T02:50:00.414Z,26.3
2018-09-06T02:55:00.415Z,26.6
2018-09-06T03:00:00.421Z,26.4
2018-09-06T03:05:00.368Z,28.3
2018-09-06T03:10:00.396Z,29.1
2018-09-06T03:15:00.424Z,29.9
2018-09-06T03:20:00.445Z,30.8
2018-09-06T03:25:00.413Z,31.1
2018-09-06T03:30:00.445Z,30.6
2018-09-06T03:35:00.407Z,30.1
2018-09-06T03:40:00.434Z,29.0
2018-09-06T03:45:00.441Z,28.6
2018-09-06T03:50:00.447Z,28.2
2018-09-06T03:55:00.433Z,28.0
2018-09-06T04:00:00.406Z,27.4
2018-09-06T04:05:00.378Z,27.8
2018-09-06T04:10:00.411Z,27.2
2018-09-06T04:15:00.380Z,27.0
2018-09-06T04:20:00.413Z,26.8
2018-09-06T04:25:00.380Z,27.3
2018-09-06T04:30:00.452Z,27.4
2018-09-06T04:35:00.424Z,29.3
2018-09-06T04:45:00.425Z,29.2
2018-09-06T04:50:00.424Z,27.5
2018-09-06T04:55:00.405Z,27.7
2018-09-06T05:00:00.434Z,26.7
2018-09-06T05:05:00.397Z,27.2
2018-09-06T05:10:00.426Z,28.0
2018-09-06T05:15:00.399Z,31.4
2018-09-06T05:20:00.456Z,32.5
2018-09-06T05:25:00.428Z,33.4
2018-09-06T05:30:00.463Z,32.9
2018-09-06T05:35:00.543Z,32.4
2018-09-06T05:40:00.487Z,31.7
2018-09-06T05:45:00.489Z,32.0
2018-09-06T05:55:00.440Z,32.4
2018-09-06T06:00:00.489Z,31.8
2018-09-06T06:05:00.462Z,30.5
2018-09-06T06:10:00.467Z,30.4
2018-09-06T06:15:00.440Z,29.9
2018-09-06T06:20:00.610Z,29.8
2018-09-06T06:25:00.443Z,30.7
2018-09-06T06:30:00.472Z,32.1
2018-09-06T06:35:00.473Z,32.0
2018-09-06T06:40:00.471Z,31.3
2018-09-06T06:45:00.443Z,31.1
2018-09-06T06:50:00.473Z,30.1
2018-09-06T06:55:00.449Z,29.8
2018-09-06T07:00:00.455Z,29.0
2018-09-06T07:05:00.455Z,28.7
2018-09-06T07:10:00.479Z,29.2
2018-09-06T07:15:00.479Z,29.1
2018-09-06T07:20:00.483Z,28.4
2018-09-06T07:25:00.497Z,28.8
2018-09-06T07:30:00.488Z,29.0
2018-09-06T07:35:00.491Z,29.2
2018-09-06T07:40:00.494Z,29.8
2018-09-06T07:45:00.476Z,29.4
2018-09-06T07:50:00.543Z,28.8
2018-09-06T07:55:00.458Z,28.6
2018-09-06T08:00:00.492Z,28.3
2018-09-06T08:05:00.441Z,28.7
2018-09-06T08:10:00.475Z,29.4
2018-09-06T08:15:00.509Z,30.5
2018-09-06T08:20:00.468Z,30.6
2018-09-06T08:25:00.498Z,29.9
2018-09-06T08:30:00.501Z,28.9
2018-09-06T08:35:00.501Z,28.5
2018-09-06T08:40:00.502Z,27.5
2018-09-06T08:45:00.497Z,27.8
2018-09-06T08:50:00.506Z,28.8
2018-09-06T08:55:00.506Z,29.5
2018-09-06T09:00:00.494Z,29.8
2018-09-06T09:05:00.483Z,30.0
2018-09-06T09:10:00.485Z,29.4
2018-09-06T09:15:00.498Z,29.4
2018-09-06T09:25:00.510Z,29.6
2018-09-06T09:30:00.515Z,30.0
2018-09-06T09:35:00.524Z,31.1
2018-09-06T09:40:00.562Z,31.2
2018-09-06T09:45:00.530Z,30.6
2018-09-06T09:50:00.530Z,30.4
2018-09-06T09:55:00.490Z,29.8
2018-09-06T10:00:00.522Z,29.2
2018-09-06T10:05:00.524Z,29.6
2018-09-06T10:10:00.521Z,30.4
2018-09-06T10:15:00.519Z,29.8
2018-09-06T10:20:00.530Z,30.5
2018-09-06T10:25:00.593Z,31.0
2018-09-06T10:30:00.519Z,30.7
2018-09-06T10:35:00.533Z,29.4
2018-09-06T10:40:00.597Z,30.1
2018-09-06T10:45:00.540Z,30.2
2018-09-06T10:50:00.536Z,30.4
2018-09-06T10:55:00.544Z,30.2
2018-09-06T11:00:00.534Z,30.3
2018-09-06T11:05:00.511Z,29.7
2018-09-06T11:10:00.547Z,28.1
2018-09-06T11:15:00.592Z,27.3
2018-09-06T11:20:00.546Z,25.9
2018-09-06T11:25:00.519Z,26.4
2018-09-06T11:30:00.609Z,26.1
2018-09-06T11:35:00.518Z,26.6
2018-09-06T11:40:00.628Z,26.1
2018-09-06T11:45:00.575Z,26.4
2018-09-06T11:50:00.527Z,26.0
2018-09-06T11:55:00.498Z,25.6
2018-09-06T12:00:00.533Z,25.9
2018-09-06T12:05:00.529Z,26.2
2018-09-06T12:10:00.526Z,26.7
2018-09-06T12:15:00.536Z,26.4
2018-09-06T12:20:00.544Z,26.6
2018-09-06T12:25:00.542Z,26.0
2018-09-06T12:30:00.604Z,25.9
2018-09-06T12:35:00.518Z,26.3
2018-09-06T12:40:00.536Z,26.4
2018-09-06T12:45:00.533Z,26.9
2018-09-06T12:50:00.541Z,28.5
2018-09-06T12:55:00.510Z,30.8
2018-09-06T13:00:00.544Z,30.8
2018-09-06T13:05:00.514Z,31.6
2018-09-06T13:10:00.547Z,32.0
2018-09-06T13:15:00.549Z,32.5
2018-09-06T13:20:00.552Z,31.3
2018-09-06T13:25:00.583Z,30.8
2018-09-06T13:30:00.601Z,30.3
2018-09-06T13:35:00.586Z,31.1
2018-09-06T13:40:00.602Z,28.8
2018-09-06T13:45:00.603Z,28.0
2018-09-06T13:50:00.592Z,27.8
2018-09-06T13:55:00.584Z,28.6
2018-09-06T14:00:00.644Z,27.5
2018-09-06T14:05:00.593Z,28.4
2018-09-06T14:10:00.565Z,27.7
2018-09-06T14:15:00.563Z,27.5
2018-09-06T14:20:00.556Z,26.2
2018-09-06T14:25:00.528Z,25.4
2018-09-06T14:30:00.563Z,25.5
2018-09-06T14:35:00.536Z,25.3
2018-09-06T14:40:00.592Z,26.4
2018-09-06T14:45:00.572Z,27.7
2018-09-06T14:50:00.603Z,27.6
2018-09-06T14:55:00.605Z,27.2
2018-09-06T15:00:00.609Z,27.4
2018-09-06T15:05:00.601Z,26.4
2018-09-06T15:10:00.609Z,26.0
2018-09-06T15:15:00.578Z,27.0
2018-09-06T15:20:00.655Z,27.9
2018-09-06T15:25:00.615Z,28.7
2018-09-06T15:30:00.576Z,29.0
2018-09-06T15:35:00.579Z,28.5
2018-09-06T15:40:00.584Z,28.0
2018-09-06T15:45:00.620Z,27.4
2018-09-06T15:50:00.604Z,27.7
2018-09-06T15:55:00.552Z,28.5
2018-09-06T16:00:00.588Z,28.6
2018-09-06T16:05:00.560Z,28.4
2018-09-06T16:10:00.601Z,28.0
2018-09-06T16:15:00.596Z,27.4
2018-09-06T16:20:00.599Z,26.7
2018-09-06T16:25:00.569Z,26.5
2018-09-06T16:30:00.602Z,27.2
2018-09-06T16:35:00.626Z,27.7
2018-09-06T16:40:00.605Z,28.4
2018-09-06T16:45:00.582Z,28.6
2018-09-06T16:50:00.610Z,28.5
2018-09-06T16:55:00.610Z,28.2
2018-09-06T17:00:00.612Z,28.4
2018-09-06T17:05:00.613Z,28.1
2018-09-06T17:10:00.615Z,27.8
2018-09-06T17:15:00.585Z,28.7
2018-09-06T17:20:00.616Z,28.0
2018-09-06T17:25:00.615Z,27.7
2018-09-06T17:30:00.614Z,27.2
2018-09-06T17:35:00.600Z,27.4
2018-09-06T17:40:00.642Z,26.4
2018-09-06T17:45:00.639Z,25.9
2018-09-06T17:50:00.650Z,26.1
2018-09-06T17:55:00.614Z,26.4
2018-09-06T18:00:00.646Z,26.7
2018-09-06T18:05:00.648Z,27.0
2018-09-06T18:10:00.664Z,28.2
2018-09-06T18:15:00.651Z,27.6
2018-09-06T18:20:00.666Z,26.8
2018-09-06T18:25:00.635Z,26.5
2018-09-06T18:30:00.665Z,27.0
2018-09-06T18:35:00.669Z,27.4
2018-09-06T18:40:00.664Z,28.2
2018-09-06T18:45:00.663Z,28.6
2018-09-06T18:50:00.669Z,28.5
2018-09-06T18:55:00.658Z,28.0
2018-09-06T19:00:00.661Z,28.4
2018-09-06T19:05:00.637Z,28.8
2018-09-06T19:10:00.667Z,29.9
2018-09-06T19:15:00.670Z,29.6
2018-09-06T19:20:00.682Z,30.0
2018-09-06T19:25:00.680Z,29.3
2018-09-06T19:30:00.683Z,28.9
2018-09-06T19:35:00.686Z,27.9
2018-09-06T19:40:00.683Z,27.8
2018-09-06T19:45:00.708Z,27.7
2018-09-06T19:50:00.693Z,27.3
2018-09-06T19:55:00.722Z,27.0
2018-09-06T20:00:00.728Z,27.8
2018-09-06T20:05:00.686Z,28.4
2018-09-06T20:10:00.663Z,28.7
2018-09-06T20:15:00.636Z,29.2
2018-09-06T20:20:00.684Z,29.6
2018-09-06T20:30:00.666Z,30.1
2018-09-06T20:35:00.675Z,30.4
2018-09-06T20:40:00.681Z,30.7
2018-09-06T20:45:00.640Z,30.8
2018-09-06T20:50:00.671Z,30.2
2018-09-06T20:55:00.634Z,29.3
2018-09-06T21:00:00.676Z,29.0
2018-09-06T21:05:00.651Z,28.8
2018-09-06T21:10:00.676Z,28.3
2018-09-06T21:15:00.676Z,29.4
2018-09-06T21:20:00.676Z,30.1
2018-09-06T21:25:00.647Z,30.0
2018-09-06T21:30:00.733Z,30.1
2018-09-06T21:35:00.680Z,30.7
2018-09-06T21:40:00.748Z,30.1
2018-09-06T21:45:00.650Z,29.7
2018-09-06T21:50:00.683Z,30.5
2018-09-06T21:55:00.651Z,30.6
2018-09-06T22:00:00.688Z,31.0
2018-09-06T22:05:00.686Z,32.1
2018-09-06T22:10:00.690Z,32.6
2018-09-06T22:15:00.656Z,32.4
2018-09-06T22:20:00.690Z,32.9
2018-09-06T22:25:00.656Z,33.0
2018-09-06T22:30:00.720Z,32.3
2018-09-06T22:35:00.660Z,33.0
2018-09-06T22:45:00.696Z,33.7
2018-09-06T22:50:00.692Z,34.6
2018-09-06T23:00:00.737Z,34.6
2018-09-06T23:25:00.916Z,34.8
2018-09-06T23:30:00.935Z,38.4
2018-09-06T23:35:00.931Z,37.7
2018-09-06T23:40:00.939Z,36.6
2018-09-06T23:45:00.943Z,36.2
2018-09-06T23:50:00.941Z,35.0
2018-09-06T23:55:00.945Z,34.3
